Terminal Aerodrome Forecast
Issued by NWS Jacksonville, FL

Home | Current Version | Previous Version | Text Only | Print | Product List | Glossary On
Versions: 1 2 3 4 5 6 7 8 9 10 11 12 13 14
000
FTUS42 KJAX 291120
TAFJAX
TAF
KJAX 291120Z 2912/3012 28008KT P6SM FEW025
     FM291400 31011G16KT P6SM SCT030
     FM292000 34008KT P6SM SCT040 SCT150
     FM300000 VRB03KT P6SM FEW040 FEW150=

USA.gov is the U.S. government's official web portal to all federal, state and local government web resources and services.